sensor_id;sensor_type;location;lat;lon;timestamp;temperature;humidity
73438;DHT22;66471;56.532;21.020;2023-02-22T00:01:54;0.00;84.40
73438;DHT22;66471;56.532;21.020;2023-02-22T00:04:41;0.00;84.50
73438;DHT22;66471;56.532;21.020;2023-02-22T00:07:08;0.00;83.60
73438;DHT22;66471;56.532;21.020;2023-02-22T00:09:35;0.10;83.20
73438;DHT22;66471;56.532;21.020;2023-02-22T00:12:02;0.00;83.00
73438;DHT22;66471;56.532;21.020;2023-02-22T00:14:29;0.10;82.90
73438;DHT22;66471;56.532;21.020;2023-02-22T00:16:56;0.20;82.70
73438;DHT22;66471;56.532;21.020;2023-02-22T00:19:26;0.10;82.90
73438;DHT22;66471;56.532;21.020;2023-02-22T00:21:53;0.40;80.90
73438;DHT22;66471;56.532;21.020;2023-02-22T00:24:21;0.40;80.10
73438;DHT22;66471;56.532;21.020;2023-02-22T00:26:52;0.50;80.10
73438;DHT22;66471;56.532;21.020;2023-02-22T00:29:22;0.30;81.00
73438;DHT22;66471;56.532;21.020;2023-02-22T00:31:50;0.40;80.60
73438;DHT22;66471;56.532;21.020;2023-02-22T00:34:17;0.50;79.50
73438;DHT22;66471;56.532;21.020;2023-02-22T00:36:48;0.50;79.20
73438;DHT22;66471;56.532;21.020;2023-02-22T00:39:15;0.40;79.10
73438;DHT22;66471;56.532;21.020;2023-02-22T00:41:42;0.40;78.90
73438;DHT22;66471;56.532;21.020;2023-02-22T00:44:10;0.30;79.00
73438;DHT22;66471;56.532;21.020;2023-02-22T00:46:37;0.40;79.00
73438;DHT22;66471;56.532;21.020;2023-02-22T00:49:04;0.40;78.40
73438;DHT22;66471;56.532;21.020;2023-02-22T00:51:31;0.30;78.60
73438;DHT22;66471;56.532;21.020;2023-02-22T00:53:59;0.50;78.60
73438;DHT22;66471;56.532;21.020;2023-02-22T00:56:27;0.50;78.40
73438;DHT22;66471;56.532;21.020;2023-02-22T00:58:54;0.40;78.40
73438;DHT22;66471;56.532;21.020;2023-02-22T01:01:21;0.40;78.30
73438;DHT22;66471;56.532;21.020;2023-02-22T01:03:50;0.40;78.40
73438;DHT22;66471;56.532;21.020;2023-02-22T01:06:17;0.20;76.90
73438;DHT22;66471;56.532;21.020;2023-02-22T01:08:44;0.30;77.00
73438;DHT22;66471;56.532;21.020;2023-02-22T01:11:13;0.40;76.70
73438;DHT22;66471;56.532;21.020;2023-02-22T01:13:42;0.30;76.70
73438;DHT22;66471;56.532;21.020;2023-02-22T01:16:11;0.10;76.90
73438;DHT22;66471;56.532;21.020;2023-02-22T01:18:38;0.20;76.30
73438;DHT22;66471;56.532;21.020;2023-02-22T01:21:05;0.30;76.40
73438;DHT22;66471;56.532;21.020;2023-02-22T01:23:34;0.20;77.10
73438;DHT22;66471;56.532;21.020;2023-02-22T01:26:01;0.10;76.80
73438;DHT22;66471;56.532;21.020;2023-02-22T01:28:32;0.40;77.00
73438;DHT22;66471;56.532;21.020;2023-02-22T01:30:59;0.10;76.90
73438;DHT22;66471;56.532;21.020;2023-02-22T01:33:27;0.20;77.00
73438;DHT22;66471;56.532;21.020;2023-02-22T01:35:54;0.40;76.80
73438;DHT22;66471;56.532;21.020;2023-02-22T01:38:21;0.10;76.80
73438;DHT22;66471;56.532;21.020;2023-02-22T01:40:50;0.10;76.70
73438;DHT22;66471;56.532;21.020;2023-02-22T01:43:24;0.20;76.80
73438;DHT22;66471;56.532;21.020;2023-02-22T01:53:26;0.10;77.50
73438;DHT22;66471;56.532;21.020;2023-02-22T01:55:56;0.20;77.40
73438;DHT22;66471;56.532;21.020;2023-02-22T01:58:25;0.00;77.20
73438;DHT22;66471;56.532;21.020;2023-02-22T02:00:53;0.10;77.40
73438;DHT22;66471;56.532;21.020;2023-02-22T02:03:24;0.30;77.40
73438;DHT22;66471;56.532;21.020;2023-02-22T02:05:57;0.00;78.30
73438;DHT22;66471;56.532;21.020;2023-02-22T02:11:20;0.00;78.60
73438;DHT22;66471;56.532;21.020;2023-02-22T02:13:53;0.20;77.90
73438;DHT22;66471;56.532;21.020;2023-02-22T02:16:37;0.30;77.30
73438;DHT22;66471;56.532;21.020;2023-02-22T02:19:59;0.10;77.30
73438;DHT22;66471;56.532;21.020;2023-02-22T02:33:09;0.10;77.30
73438;DHT22;66471;56.532;21.020;2023-02-22T02:35:48;0.10;77.50
73438;DHT22;66471;56.532;21.020;2023-02-22T02:41:09;0.10;78.10
73438;DHT22;66471;56.532;21.020;2023-02-22T02:47:19;0.00;77.60
73438;DHT22;66471;56.532;21.020;2023-02-22T02:49:58;0.10;77.30
73438;DHT22;66471;56.532;21.020;2023-02-22T02:52:26;0.00;77.60
73438;DHT22;66471;56.532;21.020;2023-02-22T02:54:55;0.10;77.70
73438;DHT22;66471;56.532;21.020;2023-02-22T02:57:23;0.00;76.80
73438;DHT22;66471;56.532;21.020;2023-02-22T02:59:50;0.10;77.40
73438;DHT22;66471;56.532;21.020;2023-02-22T03:02:46;0.10;77.20
73438;DHT22;66471;56.532;21.020;2023-02-22T03:09:26;0.00;76.60
73438;DHT22;66471;56.532;21.020;2023-02-22T03:11:30;0.00;77.70
73438;DHT22;66471;56.532;21.020;2023-02-22T03:14:27;0.20;77.10
73438;DHT22;66471;56.532;21.020;2023-02-22T03:17:00;0.10;77.40
73438;DHT22;66471;56.532;21.020;2023-02-22T03:19:37;0.10;77.50
73438;DHT22;66471;56.532;21.020;2023-02-22T03:22:30;0.10;77.10
73438;DHT22;66471;56.532;21.020;2023-02-22T03:25:03;0.30;77.10
73438;DHT22;66471;56.532;21.020;2023-02-22T03:27:50;0.00;77.30
73438;DHT22;66471;56.532;21.020;2023-02-22T03:30:23;0.00;77.00
73438;DHT22;66471;56.532;21.020;2023-02-22T03:32:57;0.00;77.30
73438;DHT22;66471;56.532;21.020;2023-02-22T03:35:31;0.10;78.00
73438;DHT22;66471;56.532;21.020;2023-02-22T03:38:03;0.00;77.40
73438;DHT22;66471;56.532;21.020;2023-02-22T03:40:47;-0.10;77.00
73438;DHT22;66471;56.532;21.020;2023-02-22T03:43:23;-0.10;76.70
73438;DHT22;66471;56.532;21.020;2023-02-22T03:45:51;0.10;77.30
73438;DHT22;66471;56.532;21.020;2023-02-22T03:50:47;-0.10;77.40
73438;DHT22;66471;56.532;21.020;2023-02-22T03:53:17;0.30;77.90
73438;DHT22;66471;56.532;21.020;2023-02-22T03:55:47;-0.10;76.90
73438;DHT22;66471;56.532;21.020;2023-02-22T03:58:20;0.10;76.80
73438;DHT22;66471;56.532;21.020;2023-02-22T04:00:48;0.00;77.00
73438;DHT22;66471;56.532;21.020;2023-02-22T04:03:19;0.00;77.10
73438;DHT22;66471;56.532;21.020;2023-02-22T04:05:47;0.00;77.30
73438;DHT22;66471;56.532;21.020;2023-02-22T04:08:14;0.00;77.30
73438;DHT22;66471;56.532;21.020;2023-02-22T04:10:44;0.00;76.50
73438;DHT22;66471;56.532;21.020;2023-02-22T04:13:11;0.00;76.60
73438;DHT22;66471;56.532;21.020;2023-02-22T04:15:40;0.10;77.30
73438;DHT22;66471;56.532;21.020;2023-02-22T04:18:07;0.00;77.60
73438;DHT22;66471;56.532;21.020;2023-02-22T04:20:34;0.00;77.60
